Time;durP1;ratioP1;P1;durP2;ratioP2;P2;SDS_P1;SDS_P2;PMS_P1;PMS_P2;Temp;Humidity;BMP_temperature;BMP_pressure;BME280_temperature;BME280_humidity;BME280_pressure;Samples;Min_cycle;Max_cycle;Signal;HPM_P1;HPM_P2
2024/01/10 00:01:53;;;;;;;6.15;2.05;;;;;;;-4.52;90.06;95652.38;5094383;28;20251;-74
2024/01/10 00:04:21;;;;;;;3.65;1.83;;;;;;;-4.25;89.87;95649.63;5094560;28;20571;-75
2024/01/10 00:06:48;;;;;;;0.95;0.80;;;;;;;-4.49;89.47;95656.41;5093837;28;20578;-73
2024/01/10 00:09:15;;;;;;;0.57;0.50;;;;;;;-4.60;90.29;95652.59;5093301;28;20210;-75
2024/01/10 00:11:42;;;;;;;3.88;1.40;;;;;;;-4.57;90.91;95654.81;5096089;28;20221;-74
2024/01/10 00:14:09;;;;;;;3.05;1.85;;;;;;;-4.43;91.04;95656.41;5094304;28;20202;-73
2024/01/10 00:16:36;;;;;;;2.15;1.42;;;;;;;-4.17;91.07;95652.00;5092462;28;20267;-76
2024/01/10 00:19:03;;;;;;;1.30;0.80;;;;;;;-4.27;90.31;95656.97;5088846;28;20228;-75
2024/01/10 00:21:31;;;;;;;6.32;1.25;;;;;;;-3.88;90.79;95646.16;5092719;28;20194;-75
2024/01/10 00:24:00;;;;;;;0.60;0.60;;;;;;;-4.13;88.89;95661.97;5093390;28;20603;-76
2024/01/10 00:26:27;;;;;;;0.80;0.75;;;;;;;-4.00;89.71;95661.09;5093401;28;20204;-75
2024/01/10 00:28:56;;;;;;;1.80;1.15;;;;;;;-4.04;87.67;95670.47;5092551;28;20263;-74
2024/01/10 00:31:23;;;;;;;1.63;1.13;;;;;;;-3.95;89.38;95663.91;5089371;28;20218;-77
2024/01/10 00:33:50;;;;;;;1.38;1.20;;;;;;;-3.86;88.80;95667.13;5094111;28;20209;-73
2024/01/10 00:36:17;;;;;;;1.10;0.80;;;;;;;-4.16;88.42;95664.22;5093567;28;20590;-74
2024/01/10 00:38:45;;;;;;;0.73;0.70;;;;;;;-3.97;88.69;95665.97;5094522;28;20255;-74
2024/01/10 00:41:15;;;;;;;1.02;0.90;;;;;;;-3.90;88.68;95671.22;5092546;28;20202;-74
2024/01/10 00:43:42;;;;;;;10.25;4.13;;;;;;;-3.51;89.29;95670.16;5092109;28;20194;-75
2024/01/10 00:46:09;;;;;;;2.20;1.10;;;;;;;-3.80;89.21;95667.06;5094678;28;20213;-75
2024/01/10 00:48:36;;;;;;;3.47;1.77;;;;;;;-3.70;89.36;95671.94;5091617;28;20198;-74
2024/01/10 00:51:08;;;;;;;18.38;5.20;;;;;;;-3.58;88.35;95660.44;5092601;28;20238;-75
2024/01/10 00:53:35;;;;;;;14.43;2.17;;;;;;;-3.24;89.04;95671.59;5091439;28;20205;-75
2024/01/10 00:56:05;;;;;;;3.25;1.75;;;;;;;-2.95;86.78;95664.84;5093196;28;20206;-75
2024/01/10 00:58:32;;;;;;;1.98;1.63;;;;;;;-2.78;86.04;95670.41;5095007;28;20217;-76
2024/01/10 01:00:59;;;;;;;1.85;1.00;;;;;;;-2.90;85.50;95665.81;5096982;28;20627;-74
2024/01/10 01:03:26;;;;;;;3.33;2.10;;;;;;;-2.75;85.86;95664.66;5092678;28;20225;-75
2024/01/10 01:05:52;;;;;;;4.45;1.73;;;;;;;-2.64;85.77;95666.59;5092737;28;20205;-74
2024/01/10 01:08:19;;;;;;;4.38;2.42;;;;;;;-2.46;86.26;95669.22;5093368;28;20198;-73
2024/01/10 01:10:46;;;;;;;2.55;1.10;;;;;;;-2.23;84.09;95658.78;5093876;28;20233;-73
2024/01/10 01:13:14;;;;;;;1.92;1.30;;;;;;;-2.32;84.32;95654.78;5094558;28;20205;-74
2024/01/10 01:15:41;;;;;;;0.82;0.70;;;;;;;-2.31;83.54;95655.59;5092307;28;20233;-74
2024/01/10 01:18:09;;;;;;;1.15;1.05;;;;;;;-2.60;83.60;95657.97;5093642;28;20213;-74
2024/01/10 01:20:36;;;;;;;1.48;0.90;;;;;;;-2.49;84.50;95659.09;5093180;28;20625;-74
2024/01/10 01:23:03;;;;;;;2.42;1.13;;;;;;;-2.29;83.96;95646.38;5095830;28;20205;-75
2024/01/10 01:25:36;;;;;;;5.75;1.73;;;;;;;-2.33;83.42;95647.06;5091690;28;20191;-75
2024/01/10 01:28:02;;;;;;;2.20;1.23;;;;;;;-2.32;83.21;95649.47;5089256;28;20213;-74
2024/01/10 01:30:30;;;;;;;1.48;1.30;;;;;;;-2.40;84.01;95641.03;5091597;28;20225;-73
2024/01/10 01:32:57;;;;;;;4.55;1.95;;;;;;;-2.38;85.87;95645.06;5095466;28;20255;-74
2024/01/10 01:35:24;;;;;;;3.22;2.65;;;;;;;-2.38;85.16;95642.44;5093755;28;20317;-75
2024/01/10 01:37:51;;;;;;;5.57;2.25;;;;;;;-2.21;84.95;95634.69;5093605;28;20195;-72
2024/01/10 01:40:19;;;;;;;7.65;2.22;;;;;;;-2.24;83.79;95641.25;5092377;28;20207;-75
2024/01/10 01:42:46;;;;;;;3.08;2.25;;;;;;;-2.55;84.41;95646.69;5094080;28;20206;-75
2024/01/10 01:45:13;;;;;;;4.57;2.25;;;;;;;-2.76;84.31;95641.81;5092680;28;20202;-76
2024/01/10 01:47:42;;;;;;;1.48;1.00;;;;;;;-2.63;85.49;95641.69;5090947;28;20658;-73
2024/01/10 01:50:09;;;;;;;1.08;0.85;;;;;;;-2.72;84.95;95645.63;5094602;28;20252;-74
2024/01/10 01:52:36;;;;;;;3.83;2.00;;;;;;;-2.57;85.34;95646.09;5091601;28;20218;-75
2024/01/10 01:55:04;;;;;;;1.60;1.48;;;;;;;-2.42;84.35;95638.59;5089876;28;20214;-74
2024/01/10 01:57:31;;;;;;;1.95;1.60;;;;;;;-2.30;83.08;95630.69;5093874;28;20569;-74
2024/01/10 01:59:58;;;;;;;0.77;0.75;;;;;;;-2.50;84.34;95628.28;5092454;28;20274;-75
2024/01/10 02:02:25;;;;;;;3.08;2.38;;;;;;;-2.46;83.54;95618.81;5094454;28;20194;-76
2024/01/10 02:04:55;;;;;;;4.25;2.35;;;;;;;-2.50;84.40;95620.31;5091806;28;20205;-75
2024/01/10 02:07:22;;;;;;;2.22;1.50;;;;;;;-2.56;84.45;95613.25;5089640;28;20198;-76
2024/01/10 02:09:49;;;;;;;2.45;1.58;;;;;;;-2.29;83.61;95619.84;5093300;28;20199;-75
2024/01/10 02:12:16;;;;;;;6.60;2.20;;;;;;;-2.50;84.38;95615.03;5092980;28;20562;-76
2024/01/10 02:14:43;;;;;;;3.45;1.45;;;;;;;-2.57;85.18;95604.47;5090992;28;20206;-75
2024/01/10 02:17:09;;;;;;;2.63;1.00;;;;;;;-2.57;83.46;95615.09;5091666;28;20561;-76
2024/01/10 02:19:36;;;;;;;0.70;0.70;;;;;;;-2.56;85.10;95613.25;5092589;28;20623;-76
2024/01/10 02:22:05;;;;;;;0.93;0.77;;;;;;;-2.74;84.44;95618.56;5093054;28;20255;-76
2024/01/10 02:24:31;;;;;;;1.30;0.90;;;;;;;-2.63;83.24;95615.16;5092173;28;20201;-76
2024/01/10 02:27:00;;;;;;;1.75;1.13;;;;;;;-2.88;84.23;95613.41;5093775;28;20206;-75
2024/01/10 02:29:27;;;;;;;1.13;0.82;;;;;;;-3.04;84.49;95619.25;5091156;28;20221;-76
2024/01/10 02:31:54;;;;;;;2.22;1.00;;;;;;;-3.36;84.45;95621.16;5090309;28;20222;-75
2024/01/10 02:34:20;;;;;;;1.15;0.80;;;;;;;-3.28;86.04;95617.44;5090876;28;20209;-77
2024/01/10 02:36:47;;;;;;;0.90;0.90;;;;;;;-3.44;85.81;95623.28;5095150;28;20210;-75
2024/01/10 02:39:14;;;;;;;1.52;0.90;;;;;;;-3.33;85.17;95625.22;5095280;28;20232;-75
2024/01/10 02:41:41;;;;;;;3.17;1.50;;;;;;;-3.38;85.99;95625.03;5092744;28;20194;-75
2024/01/10 02:44:09;;;;;;;1.90;1.10;;;;;;;-3.28;85.58;95602.34;5094622;28;20221;-76
2024/01/10 02:46:36;;;;;;;1.23;1.08;;;;;;;-2.87;85.12;95622.94;5095691;28;20555;-76
2024/01/10 02:49:03;;;;;;;0.85;0.75;;;;;;;-2.66;83.50;95615.59;5092924;28;20580;-74
2024/01/10 02:51:30;;;;;;;1.73;1.05;;;;;;;-2.70;83.18;95619.72;5094745;28;20691;-76
2024/01/10 02:53:56;;;;;;;5.00;0.80;;;;;;;-2.68;83.98;95617.66;5092906;28;20210;-76
2024/01/10 02:56:23;;;;;;;1.17;0.80;;;;;;;-2.73;84.09;95626.25;5096363;28;20206;-75
2024/01/10 02:58:50;;;;;;;1.05;0.65;;;;;;;-2.80;83.88;95630.03;5099621;28;20205;-75
2024/01/10 03:01:18;;;;;;;1.10;1.00;;;;;;;-2.98;83.90;95621.03;5093593;28;20214;-75
2024/01/10 03:03:45;;;;;;;0.80;0.80;;;;;;;-3.08;84.75;95628.66;5093989;28;20209;-76
2024/01/10 03:06:12;;;;;;;0.93;0.70;;;;;;;-2.96;83.69;95620.81;5091994;28;20245;-76
2024/01/10 03:08:38;;;;;;;0.50;0.50;;;;;;;-2.94;84.95;95624.06;5093983;28;20233;-75
2024/01/10 03:11:05;;;;;;;1.90;1.13;;;;;;;-3.18;85.17;95623.06;5094538;28;20601;-76
2024/01/10 03:13:32;;;;;;;1.17;0.90;;;;;;;-3.39;85.28;95631.38;5092696;28;20662;-75
2024/01/10 03:16:00;;;;;;;0.88;0.77;;;;;;;-3.07;85.42;95624.97;5094303;28;20203;-75
2024/01/10 03:18:28;;;;;;;0.50;0.50;;;;;;;-3.13;85.70;95632.97;5095756;28;20199;-73
2024/01/10 03:20:55;;;;;;;1.20;0.90;;;;;;;-3.11;86.04;95634.38;5093317;28;20210;-75
2024/01/10 03:23:22;;;;;;;2.00;1.05;;;;;;;-3.04;86.92;95629.84;5093485;28;20562;-75
2024/01/10 03:25:49;;;;;;;0.90;0.90;;;;;;;-2.99;84.90;95630.00;5092957;28;20631;-75
2024/01/10 03:28:17;;;;;;;1.52;1.42;;;;;;;-2.83;85.23;95635.75;5095703;28;20633;-75
2024/01/10 03:30:44;;;;;;;1.42;0.77;;;;;;;-2.88;84.69;95631.13;5093859;28;20643;-74
2024/01/10 03:33:11;;;;;;;0.52;0.52;;;;;;;-2.66;84.10;95636.81;5092020;28;20279;-75
2024/01/10 03:35:39;;;;;;;0.73;0.73;;;;;;;-2.47;83.58;95627.84;5092845;28;20655;-75
2024/01/10 03:38:06;;;;;;;0.52;0.52;;;;;;;-2.70;82.35;95630.31;5093652;28;21577;-76
2024/01/10 03:40:32;;;;;;;1.65;0.90;;;;;;;-2.69;83.34;95638.06;5092070;28;20202;-76
2024/01/10 03:42:59;;;;;;;2.50;1.02;;;;;;;-2.52;83.68;95625.03;5096699;28;21730;-76
2024/01/10 03:45:26;;;;;;;1.35;1.02;;;;;;;-2.43;83.41;95626.34;5091814;28;20327;-75
2024/01/10 03:47:53;;;;;;;0.70;0.68;;;;;;;-2.58;82.64;95623.25;5091816;28;20615;-74
2024/01/10 03:50:20;;;;;;;1.38;0.70;;;;;;;-2.35;81.94;95628.72;5093540;28;20245;-76
2024/01/10 03:52:49;;;;;;;0.68;0.68;;;;;;;-2.18;81.88;95627.06;5090856;28;20225;-76
2024/01/10 03:55:16;;;;;;;0.50;0.50;;;;;;;-2.20;81.22;95629.16;5094586;28;20199;-76
2024/01/10 03:57:43;;;;;;;3.60;1.10;;;;;;;-2.33;82.37;95626.66;5093286;28;20590;-78
2024/01/10 04:00:11;;;;;;;1.27;0.88;;;;;;;-2.42;81.85;95632.47;5094875;28;20620;-76
2024/01/10 04:02:38;;;;;;;1.52;1.42;;;;;;;-2.57;80.89;95624.88;5093542;28;20275;-76
2024/01/10 04:05:08;;;;;;;2.22;0.65;;;;;;;-2.37;80.89;95630.78;5092289;28;20210;-75
2024/01/10 04:07:35;;;;;;;0.77;0.65;;;;;;;-2.16;80.43;95632.97;5092930;28;20241;-76
2024/01/10 04:10:04;;;;;;;3.50;1.83;;;;;;;-2.17;80.41;95641.94;5093570;28;20617;-75
2024/01/10 04:12:30;;;;;;;0.85;0.70;;;;;;;-2.26;80.45;95638.00;5102885;28;20562;-78
2024/01/10 04:14:58;;;;;;;0.57;0.57;;;;;;;-2.77;79.92;95642.84;5095271;28;20584;-76
2024/01/10 04:17:24;;;;;;;1.95;0.88;;;;;;;-2.69;82.57;95646.03;5095449;28;20210;-76
2024/01/10 04:19:51;;;;;;;0.50;0.50;;;;;;;2.02;100.00;95620.47;5091515;28;20205;-77
2024/01/10 04:22:18;;;;;;;3.00;0.93;;;;;;;4.43;100.00;95607.47;5092880;28;20205;-78
2024/01/10 04:24:45;;;;;;;0.30;0.30;;;;;;;4.22;100.00;95609.31;5094090;28;20209;-76
2024/01/10 04:27:13;;;;;;;0.32;0.32;;;;;;;1.99;100.00;95622.84;5087974;28;20198;-78
2024/01/10 04:29:40;;;;;;;0.20;0.20;;;;;;;0.13;95.41;95641.81;5100936;28;21005;-77
2024/01/10 04:32:07;;;;;;;0.20;0.20;;;;;;;-0.88;91.62;95645.78;5090249;28;20736;-76
2024/01/10 04:34:34;;;;;;;0.20;0.20;;;;;;;-1.45;92.70;95657.94;5091478;28;20603;-76
2024/01/10 04:37:01;;;;;;;0.28;0.28;;;;;;;-2.16;89.35;95654.19;5094020;28;20206;-78
2024/01/10 04:39:28;;;;;;;0.20;0.20;;;;;;;-2.27;90.11;95662.91;5088638;28;20574;-77
2024/01/10 04:41:55;;;;;;;0.20;0.20;;;;;;;-2.18;90.79;95666.06;5092224;28;20570;-77
2024/01/10 04:44:24;;;;;;;0.22;0.22;;;;;;;-2.35;88.17;95673.81;5092501;28;20206;-77
2024/01/10 04:46:50;;;;;;;0.30;0.30;;;;;;;-2.64;85.15;95678.00;5091196;28;20203;-77
2024/01/10 04:49:17;;;;;;;0.30;0.30;;;;;;;-2.36;86.60;95674.84;5091264;28;20229;-78
2024/01/10 04:51:44;;;;;;;0.20;0.20;;;;;;;-2.41;84.29;95681.84;5093437;28;20235;-76
2024/01/10 04:54:12;;;;;;;0.20;0.20;;;;;;;-2.24;83.91;95683.69;5093431;28;20229;-77
2024/01/10 04:56:39;;;;;;;0.55;0.55;;;;;;;-2.29;83.25;95686.19;5092736;28;20202;-77
2024/01/10 04:59:06;;;;;;;0.85;0.70;;;;;;;-2.35;81.14;95676.47;5097656;28;20217;-78
2024/01/10 05:01:34;;;;;;;1.58;1.13;;;;;;;-2.56;80.31;95684.84;5094475;28;20194;-78
2024/01/10 05:04:01;;;;;;;3.13;0.75;;;;;;;-2.47;81.54;95683.53;5098387;28;20214;-79
2024/01/10 05:06:28;;;;;;;0.63;0.63;;;;;;;-2.37;81.44;95675.88;5091553;28;20647;-76
2024/01/10 05:08:58;;;;;;;1.88;0.75;;;;;;;-2.19;83.84;95667.91;5092671;28;20243;-76
2024/01/10 05:11:26;;;;;;;0.70;0.70;;;;;;;-2.46;79.89;95679.84;5107928;28;20614;-76
2024/01/10 05:13:53;;;;;;;0.98;0.90;;;;;;;-2.39;80.02;95683.25;5105238;28;20295;-76
2024/01/10 05:16:21;;;;;;;2.50;0.90;;;;;;;-2.42;80.09;95681.03;5107091;28;20244;-78
2024/01/10 05:18:49;;;;;;;1.38;0.75;;;;;;;-2.39;81.44;95683.25;5109281;28;20201;-77
2024/01/10 05:21:16;;;;;;;1.23;0.93;;;;;;;-2.63;80.30;95690.22;5107232;28;21587;-77
2024/01/10 05:23:43;;;;;;;1.17;1.08;;;;;;;-2.70;80.31;95689.47;5109416;28;20202;-77
2024/01/10 05:26:10;;;;;;;0.88;0.73;;;;;;;-2.79;80.27;95698.75;5091787;28;20212;-78
2024/01/10 05:28:37;;;;;;;0.90;0.80;;;;;;;-2.73;81.56;95692.56;5091070;28;20202;-79
2024/01/10 05:31:04;;;;;;;0.80;0.80;;;;;;;-2.51;80.77;95706.22;5091361;28;20202;-77
2024/01/10 05:33:31;;;;;;;2.63;0.80;;;;;;;-2.34;79.52;95699.31;5091875;28;20320;-77
2024/01/10 05:36:00;;;;;;;1.02;0.85;;;;;;;-2.69;80.15;95703.53;5090749;28;20224;-77
2024/01/10 05:38:27;;;;;;;4.05;0.63;;;;;;;-2.59;78.83;95702.00;5091790;28;20214;-75
2024/01/10 05:40:53;;;;;;;1.48;0.95;;;;;;;-2.60;80.60;95704.91;5095972;28;20212;-77
2024/01/10 05:43:19;;;;;;;0.70;0.68;;;;;;;-2.57;79.63;95705.25;5113053;28;20202;-78
2024/01/10 05:45:46;;;;;;;0.60;0.50;;;;;;;-2.49;78.45;95706.81;5103404;28;20723;-77
2024/01/10 05:48:13;;;;;;;2.63;0.90;;;;;;;-2.76;78.66;95694.84;5112633;28;20213;-78
2024/01/10 05:50:40;;;;;;;0.88;0.82;;;;;;;-2.49;78.58;95706.00;5105722;28;20229;-77
2024/01/10 05:53:08;;;;;;;1.65;0.57;;;;;;;-2.31;79.29;95709.47;5112311;28;20233;-77
2024/01/10 05:55:36;;;;;;;1.27;0.80;;;;;;;-2.40;77.17;95710.81;5088770;28;20259;-77
2024/01/10 05:58:03;;;;;;;2.63;1.27;;;;;;;-2.26;77.04;95699.03;5112725;28;20229;-77
2024/01/10 06:00:30;;;;;;;1.38;0.80;;;;;;;-2.29;77.02;95707.41;5105901;28;20217;-78
2024/01/10 06:02:57;;;;;;;0.60;0.60;;;;;;;-2.07;79.44;95710.47;5092099;28;20608;-76
2024/01/10 06:05:23;;;;;;;1.13;0.90;;;;;;;-1.89;79.88;95706.94;5106199;28;20233;-76
2024/01/10 06:07:50;;;;;;;1.05;0.90;;;;;;;-1.94;79.51;95710.28;5090636;28;20543;-77
2024/01/10 06:10:19;;;;;;;2.78;1.38;;;;;;;-2.14;77.42;95715.00;5109132;28;20721;-75
2024/01/10 06:12:46;;;;;;;0.90;0.90;;;;;;;-2.20;78.66;95722.03;5092001;28;20221;-78
2024/01/10 06:15:13;;;;;;;5.25;1.23;;;;;;;-2.12;78.21;95725.41;5091568;28;20210;-78
2024/01/10 06:17:40;;;;;;;0.45;0.45;;;;;;;-2.19;77.96;95723.63;5088369;28;20591;-77
2024/01/10 06:20:07;;;;;;;1.52;0.85;;;;;;;-2.04;78.52;95719.78;5102810;28;20225;-77
2024/01/10 06:22:34;;;;;;;0.93;0.65;;;;;;;-2.04;77.93;95719.78;5097734;28;20202;-76
2024/01/10 06:25:01;;;;;;;1.65;1.00;;;;;;;-1.91;78.36;95730.25;5095684;28;20586;-78
2024/01/10 06:27:30;;;;;;;0.93;0.85;;;;;;;-2.08;77.58;95734.56;5095948;28;20202;-79
2024/01/10 06:29:56;;;;;;;1.27;1.00;;;;;;;-1.88;77.34;95724.50;5095865;28;20287;-78
2024/01/10 06:32:23;;;;;;;1.17;0.90;;;;;;;-1.90;77.89;95731.88;5061647;28;20226;-76
2024/01/10 06:34:50;;;;;;;1.38;1.08;;;;;;;-1.61;77.07;95728.44;5096662;28;20654;-77
2024/01/10 06:37:17;;;;;;;1.33;0.77;;;;;;;-1.79;76.75;95736.47;5094678;28;20210;-77
2024/01/10 06:39:44;;;;;;;0.30;0.30;;;;;;;-1.55;78.02;95732.88;5094304;28;20210;-78
2024/01/10 06:42:11;;;;;;;0.20;0.20;;;;;;;-1.81;78.38;95735.88;5097183;28;20624;-78
2024/01/10 06:44:40;;;;;;;0.52;0.52;;;;;;;-1.55;77.35;95730.22;5095212;28;20611;-77
2024/01/10 06:47:07;;;;;;;0.20;0.20;;;;;;;-1.46;76.89;95744.81;5094984;28;20206;-77
2024/01/10 06:49:35;;;;;;;0.20;0.20;;;;;;;-1.60;76.72;95747.84;5094974;28;20282;-78
2024/01/10 06:52:01;;;;;;;0.20;0.20;;;;;;;-1.61;76.88;95740.91;5096315;28;20205;-78
2024/01/10 06:54:28;;;;;;;0.20;0.20;;;;;;;-1.57;77.01;95747.41;5086280;28;20214;-78
2024/01/10 06:56:55;;;;;;;0.40;0.40;;;;;;;-1.24;76.85;95752.31;5091108;28;20209;-79
2024/01/10 06:59:22;;;;;;;0.32;0.32;;;;;;;-1.17;75.94;95750.34;5095490;28;20211;-76
2024/01/10 07:01:55;;;;;;;0.20;0.20;;;;;;;-1.59;75.19;95760.91;5097773;28;20255;-77
2024/01/10 07:04:23;;;;;;;0.20;0.20;;;;;;;-2.39;73.29;95764.66;5097325;28;20285;-77
2024/01/10 07:06:50;;;;;;;0.88;0.88;;;;;;;-3.04;72.40;95759.72;5097430;28;20202;-79
2024/01/10 07:09:19;;;;;;;0.80;0.77;;;;;;;-3.12;74.71;95769.75;5103478;28;20371;-77
2024/01/10 07:11:47;;;;;;;1.75;0.73;;;;;;;-3.28;72.09;95760.50;5098431;28;20304;-77
2024/01/10 07:14:14;;;;;;;0.45;0.45;;;;;;;-3.42;72.75;95770.34;5094421;28;20601;-77
2024/01/10 07:16:42;;;;;;;0.57;0.30;;;;;;;-3.54;71.00;95765.91;5095463;28;20229;-78
2024/01/10 07:19:13;;;;;;;6.25;1.77;;;;;;;-3.18;69.06;95782.03;5099675;28;20198;-77
2024/01/10 07:21:40;;;;;;;1.17;0.95;;;;;;;-3.16;71.58;95779.16;5106148;28;20289;-79
2024/01/10 07:24:08;;;;;;;1.48;0.75;;;;;;;-2.95;68.48;95776.97;5094310;28;20199;-79
2024/01/10 07:26:35;;;;;;;2.38;1.27;;;;;;;-3.16;68.11;95773.84;5095352;28;20230;-78
2024/01/10 07:29:02;;;;;;;2.25;1.25;;;;;;;-2.45;68.45;95782.25;5093207;28;20563;-78
2024/01/10 07:31:29;;;;;;;0.70;0.70;;;;;;;-2.36;66.47;95783.63;5114669;28;20296;-78
2024/01/10 07:33:56;;;;;;;1.42;1.33;;;;;;;-2.66;67.61;95780.00;5114206;28;20256;-78
2024/01/10 07:36:26;;;;;;;0.82;0.75;;;;;;;-2.69;67.83;95781.25;5101177;28;20236;-78
2024/01/10 07:38:53;;;;;;;2.15;1.67;;;;;;;-2.87;70.02;95789.16;5101058;28;20627;-78
2024/01/10 07:41:20;;;;;;;0.30;0.30;;;;;;;-3.09;69.53;95791.31;5093235;28;20198;-77
2024/01/10 07:43:47;;;;;;;1.02;1.00;;;;;;;-2.47;71.03;95800.25;5109606;28;20663;-77
2024/01/10 07:46:13;;;;;;;1.60;1.13;;;;;;;-2.34;70.34;95789.53;5115258;28;20364;-79
2024/01/10 07:48:40;;;;;;;1.80;0.95;;;;;;;-2.56;69.26;95794.41;5103411;28;20210;-78
2024/01/10 07:51:07;;;;;;;1.98;1.35;;;;;;;-2.70;69.51;95792.06;5080655;28;20272;-80
2024/01/10 07:53:47;;;;;;;2.33;1.13;;;;;;;-2.72;69.19;95791.47;5100191;28;20547;-75
2024/01/10 07:56:19;;;;;;;1.48;1.10;;;;;;;-2.42;70.33;95797.75;5093300;28;20206;-78
2024/01/10 07:58:48;;;;;;;3.42;1.35;;;;;;;-1.84;69.83;95792.06;5100055;28;20566;-79
2024/01/10 08:01:15;;;;;;;2.55;1.13;;;;;;;-1.80;67.91;95785.28;5112696;28;20237;-77
2024/01/10 08:03:42;;;;;;;1.42;1.02;;;;;;;-1.80;66.75;95791.41;5092724;28;20210;-77
2024/01/10 08:06:10;;;;;;;0.85;0.85;;;;;;;-2.16;65.58;95800.16;5093274;28;20210;-75
2024/01/10 08:08:38;;;;;;;3.35;0.90;;;;;;;-1.55;68.28;95788.66;5092600;28;20198;-76
2024/01/10 08:11:05;;;;;;;1.27;0.95;;;;;;;-1.33;67.18;95790.84;5092261;28;20563;-77
2024/01/10 08:13:32;;;;;;;2.00;1.58;;;;;;;-1.37;66.44;95789.69;5097853;28;20213;-78
2024/01/10 08:15:58;;;;;;;3.40;1.13;;;;;;;-0.90;63.46;95806.59;5113482;28;20300;-81
2024/01/10 08:18:26;;;;;;;1.42;0.85;;;;;;;-0.68;64.63;95798.94;5105994;28;20199;-80
2024/01/10 08:20:55;;;;;;;0.20;0.20;;;;;;;-0.38;62.60;95794.34;5106262;28;20219;-78
2024/01/10 08:23:21;;;;;;;0.20;0.20;;;;;;;-0.80;64.33;95789.06;5110196;28;20663;-76
2024/01/10 08:25:50;;;;;;;0.20;0.20;;;;;;;-1.04;62.50;95790.03;5092222;28;20218;-79
2024/01/10 08:28:16;;;;;;;0.35;0.35;;;;;;;-0.88;62.54;95797.38;5094075;28;20206;-77
2024/01/10 08:30:43;;;;;;;0.20;0.20;;;;;;;-1.14;62.87;95795.09;5092124;28;20600;-78
2024/01/10 08:33:10;;;;;;;0.40;0.40;;;;;;;-0.98;61.79;95799.78;5092762;28;20584;-78
2024/01/10 08:35:38;;;;;;;0.20;0.20;;;;;;;-1.17;62.04;95800.84;5092573;28;20210;-77
2024/01/10 08:38:07;;;;;;;0.20;0.20;;;;;;;-1.00;62.21;95799.19;5093592;28;20199;-77
2024/01/10 08:40:34;;;;;;;0.30;0.30;;;;;;;-0.80;61.81;95799.69;5093692;28;20206;-80
2024/01/10 08:43:02;;;;;;;0.20;0.20;;;;;;;-0.64;62.70;95805.41;5099226;28;20204;-78
2024/01/10 08:45:29;;;;;;;0.30;0.28;;;;;;;-0.38;62.14;95804.97;5095733;28;20209;-78
2024/01/10 08:47:57;;;;;;;1.08;0.90;;;;;;;-0.40;60.70;95801.72;5091571;28;20214;-78
2024/01/10 08:50:24;;;;;;;0.20;0.20;;;;;;;-0.42;61.17;95803.84;5087013;28;20284;-79
2024/01/10 08:52:51;;;;;;;0.20;0.20;;;;;;;-0.19;60.21;95801.19;5092068;28;20234;-78
2024/01/10 08:55:18;;;;;;;0.40;0.40;;;;;;;-0.65;62.01;95803.78;5087671;28;20547;-78
2024/01/10 08:57:44;;;;;;;1.58;1.50;;;;;;;-0.29;61.09;95802.81;5091304;28;20210;-78
2024/01/10 09:00:16;;;;;;;0.20;0.20;;;;;;;-0.35;61.21;95807.19;5098193;28;20398;-78
2024/01/10 09:02:43;;;;;;;0.20;0.20;;;;;;;0.12;63.00;95788.56;5101480;28;20218;-79
2024/01/10 09:05:10;;;;;;;0.20;0.20;;;;;;;-0.06;63.60;95792.97;5103943;28;20211;-79
2024/01/10 09:07:37;;;;;;;0.28;0.28;;;;;;;0.34;65.66;95786.91;5091525;28;20263;-79
2024/01/10 09:10:07;;;;;;;0.20;0.20;;;;;;;0.27;65.83;95780.91;5092517;28;20275;-79
2024/01/10 09:12:34;;;;;;;0.20;0.20;;;;;;;0.14;64.17;95792.59;5091270;28;20198;-78
2024/01/10 09:15:00;;;;;;;0.20;0.20;;;;;;;0.28;65.70;95788.63;5090036;28;20287;-78
2024/01/10 09:17:29;;;;;;;0.20;0.20;;;;;;;0.36;65.83;95779.47;5091493;28;20635;-81
2024/01/10 09:19:56;;;;;;;0.25;0.25;;;;;;;0.71;64.97;95782.84;5103940;28;20206;-77
2024/01/10 09:22:23;;;;;;;0.60;0.57;;;;;;;1.06;60.72;95780.06;5091868;28;20218;-79
2024/01/10 09:24:50;;;;;;;0.30;0.30;;;;;;;0.11;58.27;95784.28;5091745;28;20248;-78
2024/01/10 09:27:17;;;;;;;0.20;0.20;;;;;;;0.65;62.65;95772.34;5093504;28;20205;-79
2024/01/10 09:29:44;;;;;;;0.20;0.20;;;;;;;0.36;61.60;95787.47;5098093;28;20205;-79
2024/01/10 09:32:10;;;;;;;0.20;0.20;;;;;;;0.55;63.02;95772.09;5093885;28;20669;-80
2024/01/10 09:34:39;;;;;;;0.38;0.38;;;;;;;0.73;65.10;95779.13;5088165;28;20280;-78
2024/01/10 09:37:06;;;;;;;0.43;0.43;;;;;;;0.73;65.52;95779.13;5090994;28;20210;-77
2024/01/10 09:39:32;;;;;;;0.30;0.30;;;;;;;0.59;65.18;95774.06;5098830;28;20237;-78
2024/01/10 09:42:01;;;;;;;0.35;0.35;;;;;;;-0.46;64.97;95781.38;5090922;28;20206;-78
2024/01/10 09:44:29;;;;;;;0.20;0.20;;;;;;;-0.27;65.97;95774.88;5090568;28;20310;-79
2024/01/10 09:46:56;;;;;;;0.30;0.30;;;;;;;0.30;66.33;95775.06;5090475;28;20203;-78
2024/01/10 09:49:23;;;;;;;0.20;0.20;;;;;;;-0.21;65.29;95778.50;5096390;28;20234;-76
2024/01/10 09:51:54;;;;;;;0.20;0.20;;;;;;;0.30;67.54;95775.06;5069843;28;20199;-77
2024/01/10 09:54:25;;;;;;;0.20;0.20;;;;;;;0.84;66.66;95771.09;5058889;28;20621;-78
2024/01/10 09:56:53;;;;;;;0.40;0.40;;;;;;;1.22;65.38;95767.78;5068499;28;20217;-76
2024/01/10 09:59:19;;;;;;;0.43;0.43;;;;;;;1.77;64.76;95759.88;5058128;28;20207;-75
2024/01/10 10:01:46;;;;;;;0.20;0.20;;;;;;;1.74;61.17;95765.69;5057958;28;20209;-78
2024/01/10 10:04:16;;;;;;;0.65;0.65;;;;;;;1.50;61.31;95760.78;5051766;28;20211;-78
2024/01/10 10:06:43;;;;;;;0.30;0.30;;;;;;;1.27;58.90;95754.50;5053012;28;20250;-77
2024/01/10 10:09:13;;;;;;;0.20;0.20;;;;;;;1.11;62.13;95757.97;5055688;28;20208;-78
2024/01/10 10:11:41;;;;;;;0.20;0.20;;;;;;;0.95;62.84;95750.78;5053755;28;20523;-77
2024/01/10 10:14:15;;;;;;;0.20;0.20;;;;;;;1.24;63.76;95749.66;5060529;28;20567;-79
2024/01/10 10:16:42;;;;;;;0.20;0.20;;;;;;;1.30;63.96;95740.69;5064386;28;20285;-79
2024/01/10 10:19:11;;;;;;;0.20;0.20;;;;;;;1.47;63.49;95738.03;5064765;28;20195;-77
2024/01/10 10:21:38;;;;;;;0.20;0.20;;;;;;;1.43;64.72;95726.22;5063123;28;20245;-76
2024/01/10 10:24:09;;;;;;;0.20;0.20;;;;;;;1.75;64.17;95718.44;5062314;28;20286;-80
2024/01/10 10:26:37;;;;;;;0.20;0.20;;;;;;;1.78;62.91;95715.25;5050433;28;20208;-77
2024/01/10 10:29:05;;;;;;;0.52;0.52;;;;;;;1.99;63.98;95714.50;5063903;28;20206;-76
2024/01/10 10:31:32;;;;;;;0.90;0.90;;;;;;;2.18;62.58;95711.53;5059963;28;20257;-77
2024/01/10 10:34:02;;;;;;;0.30;0.30;;;;;;;1.50;60.92;95715.38;5057016;28;20263;-76
2024/01/10 10:36:31;;;;;;;0.20;0.20;;;;;;;0.15;62.37;95718.81;5059640;28;20218;-77
2024/01/10 10:39:01;;;;;;;0.20;0.20;;;;;;;0.18;64.34;95702.34;5061371;28;20212;-77
2024/01/10 10:41:32;;;;;;;0.20;0.20;;;;;;;0.50;65.90;95697.41;5050299;28;20231;-79
2024/01/10 10:44:00;;;;;;;0.20;0.20;;;;;;;0.80;66.61;95702.47;5063383;28;20199;-77
2024/01/10 10:46:28;;;;;;;0.30;0.30;;;;;;;0.82;64.37;95695.06;5058300;28;20298;-77
2024/01/10 10:49:00;;;;;;;0.35;0.35;;;;;;;0.35;62.39;95687.25;5066643;28;20203;-76
2024/01/10 10:51:33;;;;;;;0.20;0.20;;;;;;;0.03;64.13;95688.72;5088359;28;20225;-77
2024/01/10 10:54:00;;;;;;;0.20;0.20;;;;;;;-0.13;65.09;95692.91;5094121;28;20302;-77
2024/01/10 10:56:30;;;;;;;0.20;0.20;;;;;;;0.23;65.61;95665.16;5081830;28;20253;-78
2024/01/10 10:58:59;;;;;;;0.20;0.20;;;;;;;0.10;65.36;95673.44;5099801;28;20202;-76
2024/01/10 11:01:28;;;;;;;0.20;0.20;;;;;;;-0.08;65.20;95680.53;5099887;28;20546;-78
2024/01/10 11:03:57;;;;;;;0.20;0.20;;;;;;;0.12;66.11;95668.69;5093902;28;20202;-79
2024/01/10 11:06:24;;;;;;;0.20;0.20;;;;;;;0.08;64.92;95664.88;5087105;28;20401;-76
2024/01/10 11:08:55;;;;;;;0.20;0.20;;;;;;;-0.19;64.69;95669.91;5094435;28;20198;-78
2024/01/10 11:11:35;;;;;;;0.20;0.20;;;;;;;-0.12;65.36;95660.75;5093332;28;20213;-75
2024/01/10 11:14:17;;;;;;;0.40;0.40;;;;;;;0.15;66.73;95658.34;5108084;28;20217;-77
2024/01/10 11:17:11;;;;;;;0.47;0.47;;;;;;;0.88;65.92;95659.41;5095295;28;20661;-76
2024/01/10 11:20:23;;;;;;;0.20;0.20;;;;;;;1.36;65.15;95651.66;5066236;28;20213;-77
2024/01/10 11:23:07;;;;;;;0.20;0.20;;;;;;;1.10;62.62;95652.28;5073613;28;20205;-76
2024/01/10 11:25:36;;;;;;;0.20;0.20;;;;;;;1.18;63.57;95653.75;5093029;28;20206;-79
2024/01/10 11:28:04;;;;;;;0.20;0.20;;;;;;;0.53;62.45;95647.09;5098745;28;20238;-79
2024/01/10 11:30:34;;;;;;;0.20;0.20;;;;;;;0.59;64.01;95645.31;5093364;28;20213;-78
2024/01/10 11:33:18;;;;;;;0.40;0.40;;;;;;;0.89;63.15;95635.16;5093233;28;20267;-78
2024/01/10 11:36:07;;;;;;;1.85;0.90;;;;;;;0.77;63.23;95630.97;5093045;28;20232;-77
2024/01/10 11:38:33;;;;;;;0.43;0.43;;;;;;;0.91;62.89;95637.59;5096082;28;20219;-76